HUTR13 YWLM-YWLM
Flight info
| Callsign | HUTR13 |
|---|---|
| Flight time | 1h 7m |
| Altitude | 40000 |
| Route | WLM DCT LIMLO H536 OMLAV Q15 WOL H65 LEECE/N0449F410 DCT LGGS DCT HST DCT GGV DCT CB DCT RCSE DCT LGDA DCT GLEN DCT 351829S1490728E 351726S1490824E 351654S1490853E DCT LGGN DCT CULIN Y59 TESAT H252 EKIPU DCT WLM |
| Aircraft | F35/M-SDE3RV/LB1 |
Departure
| Time | 2026-04-25 07:24 |
|---|---|
| Airport | Newcastle Airport (YWLM) |
Arrival
| Time | 2026-04-25 08:32 |
|---|---|
| Airport | Newcastle Airport (YWLM) |
| Time | Latitude | Longitude | Altitude | Speed | Heading |
|---|---|---|---|---|---|
| 2026-04-25 06:56 | -32.79026 | 151.83829 | 31 ft | 0 kts | 55° |
| 2026-04-25 07:19 | -32.79026 | 151.83830 | 31 ft | 0 kts | 56° |
| 2026-04-25 07:19 | -32.79022 | 151.83837 | 31 ft | 5 kts | 56° |
| 2026-04-25 07:20 | -32.79036 | 151.83869 | 31 ft | 8 kts | 139° |
| 2026-04-25 07:20 | -32.79077 | 151.83864 | 31 ft | 7 kts | 230° |
| 2026-04-25 07:20 | -32.79108 | 151.83815 | 31 ft | 7 kts | 233° |
| 2026-04-25 07:20 | -32.79160 | 151.83746 | 31 ft | 19 kts | 224° |
| 2026-04-25 07:21 | -32.79266 | 151.83633 | 31 ft | 20 kts | 219° |
| 2026-04-25 07:21 | -32.79367 | 151.83536 | 29 ft | 12 kts | 225° |
| 2026-04-25 07:21 | -32.79366 | 151.83469 | 28 ft | 9 kts | 304° |
| 2026-04-25 07:21 | -32.79296 | 151.83367 | 30 ft | 24 kts | 309° |
| 2026-04-25 07:22 | -32.79220 | 151.83257 | 32 ft | 26 kts | 310° |
| 2026-04-25 07:22 | -32.79070 | 151.83051 | 33 ft | 24 kts | 310° |
| 2026-04-25 07:22 | -32.79001 | 151.82953 | 31 ft | 23 kts | 310° |
| 2026-04-25 07:22 | -32.78899 | 151.82808 | 29 ft | 23 kts | 313° |
| 2026-04-25 07:23 | -32.78757 | 151.82611 | 28 ft | 38 kts | 310° |
| 2026-04-25 07:23 | -32.78632 | 151.82418 | 28 ft | 19 kts | 290° |
| 2026-04-25 07:23 | -32.78673 | 151.82317 | 28 ft | 14 kts | 218° |
| 2026-04-25 07:23 | -32.78777 | 151.82356 | 26 ft | 42 kts | 131° |
| 2026-04-25 07:24 | -32.79303 | 151.83094 | 31 ft | 188 kts | 129° |
| 2026-04-25 07:24 | -32.80184 | 151.84360 | 1007 ft | 201 kts | 128° |
| 2026-04-25 07:24 | -32.81280 | 151.85899 | 1645 ft | 284 kts | 127° |
| 2026-04-25 07:24 | -32.82696 | 151.88044 | 2635 ft | 376 kts | 126° |
| 2026-04-25 07:25 | -32.84333 | 151.90306 | 3773 ft | 334 kts | 141° |
| 2026-04-25 07:25 | -32.86190 | 151.91337 | 4564 ft | 264 kts | 172° |
| 2026-04-25 07:25 | -32.88355 | 151.90932 | 5463 ft | 379 kts | 202° |
| 2026-04-25 07:25 | -32.90701 | 151.89422 | 6596 ft | 391 kts | 208° |
| 2026-04-25 07:26 | -32.93050 | 151.88106 | 7300 ft | 392 kts | 200° |
| 2026-04-25 07:26 | -32.95719 | 151.87073 | 8081 ft | 389 kts | 193° |
| 2026-04-25 07:26 | -32.98291 | 151.86419 | 10382 ft | 388 kts | 188° |
| 2026-04-25 07:26 | -33.00984 | 151.85959 | 13163 ft | 397 kts | 185° |
| 2026-04-25 07:27 | -33.03803 | 151.85623 | 16182 ft | 412 kts | 183° |
| 2026-04-25 07:27 | -33.04506 | 151.85554 | 16961 ft | 415 kts | 183° |
| 2026-04-25 07:27 | -33.07028 | 151.85346 | 19936 ft | 428 kts | 181° |
| 2026-04-25 07:27 | -33.10066 | 151.85358 | 23926 ft | 447 kts | 173° |
| 2026-04-25 07:28 | -33.13241 | 151.85733 | 27749 ft | 471 kts | 173° |
| 2026-04-25 07:28 | -33.16625 | 151.85958 | 31481 ft | 503 kts | 177° |
| 2026-04-25 07:28 | -33.20229 | 151.86086 | 34064 ft | 532 kts | 176° |
| 2026-04-25 07:28 | -33.24009 | 151.86410 | 33038 ft | 540 kts | 175° |
| 2026-04-25 07:29 | -33.27613 | 151.86858 | 32158 ft | 511 kts | 179° |
| 2026-04-25 07:29 | -33.31193 | 151.87200 | 32892 ft | 523 kts | 174° |
| 2026-04-25 07:29 | -33.34830 | 151.87572 | 33451 ft | 524 kts | 180° |
| 2026-04-25 07:29 | -33.38458 | 151.86910 | 33533 ft | 535 kts | 195° |
| 2026-04-25 07:30 | -33.41883 | 151.85199 | 33628 ft | 517 kts | 205° |
| 2026-04-25 07:30 | -33.45023 | 151.83133 | 33748 ft | 526 kts | 208° |
| 2026-04-25 07:30 | -33.48213 | 151.80807 | 33916 ft | 539 kts | 209° |
| 2026-04-25 07:30 | -33.51443 | 151.78490 | 34029 ft | 544 kts | 208° |
| 2026-04-25 07:31 | -33.54726 | 151.76219 | 33885 ft | 549 kts | 208° |
| 2026-04-25 07:31 | -33.56793 | 151.74789 | 33696 ft | 562 kts | 209° |
| 2026-04-25 07:32 | -33.59759 | 151.72633 | 33304 ft | 564 kts | 211° |
| 2026-04-25 07:32 | -33.63111 | 151.70007 | 33100 ft | 569 kts | 212° |
| 2026-04-25 07:32 | -33.66403 | 151.67445 | 33513 ft | 562 kts | 209° |
| 2026-04-25 07:33 | -33.69723 | 151.64977 | 34039 ft | 560 kts | 211° |
| 2026-04-25 07:33 | -33.73036 | 151.62472 | 34156 ft | 567 kts | 210° |
| 2026-04-25 07:33 | -33.75856 | 151.60310 | 34154 ft | 589 kts | 211° |
| 2026-04-25 07:33 | -33.79451 | 151.57583 | 34245 ft | 635 kts | 210° |
| 2026-04-25 07:34 | -33.83327 | 151.54650 | 34464 ft | 680 kts | 211° |
| 2026-04-25 07:34 | -33.86965 | 151.51805 | 34677 ft | 724 kts | 213° |
| 2026-04-25 07:34 | -33.91294 | 151.48237 | 34993 ft | 783 kts | 213° |
| 2026-04-25 07:34 | -33.95615 | 151.44797 | 35288 ft | 840 kts | 212° |
| 2026-04-25 07:35 | -33.99655 | 151.41730 | 35532 ft | 894 kts | 211° |
| 2026-04-25 07:35 | -34.03884 | 151.38555 | 35757 ft | 914 kts | 211° |
| 2026-04-25 07:35 | -34.09297 | 151.34671 | 36124 ft | 897 kts | 208° |
| 2026-04-25 07:35 | -34.14718 | 151.31036 | 36611 ft | 882 kts | 209° |
| 2026-04-25 07:36 | -34.23944 | 151.23565 | 36301 ft | 863 kts | 214° |
| 2026-04-25 07:36 | -34.28569 | 151.19624 | 36479 ft | 763 kts | 214° |
| 2026-04-25 07:36 | -34.32687 | 151.16166 | 36308 ft | 687 kts | 216° |
| 2026-04-25 07:37 | -34.36192 | 151.12762 | 36527 ft | 599 kts | 214° |
| 2026-04-25 07:37 | -34.38302 | 151.09005 | 36486 ft | 511 kts | 238° |
| 2026-04-25 07:37 | -34.39699 | 151.05292 | 36732 ft | 454 kts | 237° |
| 2026-04-25 07:37 | -34.41173 | 151.02359 | 36616 ft | 447 kts | 234° |
| 2026-04-25 07:38 | -34.43051 | 150.99165 | 36485 ft | 507 kts | 230° |
| 2026-04-25 07:38 | -34.45384 | 150.95808 | 36349 ft | 516 kts | 226° |
| 2026-04-25 07:38 | -34.47574 | 150.92897 | 36224 ft | 514 kts | 225° |
| 2026-04-25 07:38 | -34.50003 | 150.89695 | 36083 ft | 516 kts | 225° |
| 2026-04-25 07:39 | -34.54527 | 150.83040 | 36185 ft | 521 kts | 231° |
| 2026-04-25 07:39 | -34.56663 | 150.79443 | 36300 ft | 531 kts | 234° |
| 2026-04-25 07:39 | -34.58609 | 150.75651 | 36432 ft | 529 kts | 237° |
| 2026-04-25 07:40 | -34.62275 | 150.67920 | 36219 ft | 531 kts | 236° |
| 2026-04-25 07:40 | -34.64334 | 150.64168 | 36020 ft | 532 kts | 233° |
| 2026-04-25 07:40 | -34.66476 | 150.60457 | 34989 ft | 541 kts | 232° |
| 2026-04-25 07:41 | -34.68758 | 150.56821 | 33872 ft | 547 kts | 230° |
| 2026-04-25 07:41 | -34.71160 | 150.53199 | 32960 ft | 557 kts | 229° |
| 2026-04-25 07:41 | -34.73650 | 150.49600 | 32008 ft | 557 kts | 229° |
| 2026-04-25 07:41 | -34.76098 | 150.45913 | 31021 ft | 550 kts | 232° |
| 2026-04-25 07:42 | -34.78240 | 150.42302 | 29915 ft | 512 kts | 232° |
| 2026-04-25 07:42 | -34.80355 | 150.38691 | 28692 ft | 540 kts | 235° |
| 2026-04-25 07:42 | -34.82465 | 150.34751 | 27491 ft | 559 kts | 236° |
| 2026-04-25 07:42 | -34.84614 | 150.30891 | 26359 ft | 555 kts | 232° |
| 2026-04-25 07:43 | -34.86826 | 150.27149 | 24462 ft | 526 kts | 233° |
| 2026-04-25 07:43 | -34.88886 | 150.23676 | 22455 ft | 491 kts | 231° |
| 2026-04-25 07:43 | -34.90902 | 150.20409 | 20277 ft | 474 kts | 229° |
| 2026-04-25 07:43 | -34.92694 | 150.17146 | 18554 ft | 451 kts | 236° |
| 2026-04-25 07:44 | -34.94422 | 150.14093 | 17055 ft | 428 kts | 224° |
| 2026-04-25 07:44 | -34.96254 | 150.11257 | 14992 ft | 427 kts | 230° |
| 2026-04-25 07:44 | -34.98007 | 150.08430 | 13866 ft | 414 kts | 233° |
| 2026-04-25 07:44 | -34.99653 | 150.05620 | 13108 ft | 397 kts | 236° |
| 2026-04-25 07:45 | -35.01278 | 150.02816 | 13023 ft | 441 kts | 235° |
| 2026-04-25 07:45 | -35.02923 | 149.99871 | 12966 ft | 400 kts | 236° |
| 2026-04-25 07:45 | -35.04550 | 149.96907 | 13077 ft | 431 kts | 238° |
| 2026-04-25 07:45 | -35.05634 | 149.93728 | 12745 ft | 384 kts | 253° |
| 2026-04-25 07:46 | -35.06163 | 149.90679 | 12007 ft | 356 kts | 255° |
| 2026-04-25 07:46 | -35.06985 | 149.87828 | 11308 ft | 408 kts | 252° |
| 2026-04-25 07:46 | -35.07834 | 149.84405 | 10605 ft | 415 kts | 251° |
| 2026-04-25 07:46 | -35.08804 | 149.81103 | 9625 ft | 411 kts | 249° |
| 2026-04-25 07:47 | -35.09860 | 149.77812 | 8802 ft | 422 kts | 248° |
| 2026-04-25 07:47 | -35.10950 | 149.74540 | 8186 ft | 410 kts | 248° |
| 2026-04-25 07:47 | -35.12039 | 149.71442 | 7566 ft | 392 kts | 245° |
| 2026-04-25 07:47 | -35.13197 | 149.68295 | 7053 ft | 406 kts | 245° |
| 2026-04-25 07:48 | -35.14247 | 149.65208 | 6667 ft | 387 kts | 252° |
| 2026-04-25 07:48 | -35.15064 | 149.62143 | 6288 ft | 388 kts | 252° |
| 2026-04-25 07:48 | -35.15930 | 149.58958 | 6040 ft | 421 kts | 253° |
| 2026-04-25 07:48 | -35.16805 | 149.55712 | 6040 ft | 410 kts | 251° |
| 2026-04-25 07:49 | -35.17641 | 149.52443 | 6064 ft | 376 kts | 252° |
| 2026-04-25 07:49 | -35.18537 | 149.49280 | 6034 ft | 407 kts | 237° |
| 2026-04-25 07:49 | -35.19391 | 149.46272 | 6089 ft | 382 kts | 248° |
| 2026-04-25 07:49 | -35.20507 | 149.43329 | 6142 ft | 373 kts | 232° |
| 2026-04-25 07:50 | -35.22450 | 149.41791 | 6305 ft | 320 kts | 190° |
| 2026-04-25 07:50 | -35.24832 | 149.41908 | 6103 ft | 353 kts | 185° |
| 2026-04-25 07:50 | -35.26849 | 149.41739 | 5921 ft | 268 kts | 184° |
| 2026-04-25 07:50 | -35.28586 | 149.41683 | 5282 ft | 235 kts | 171° |
| 2026-04-25 07:51 | -35.30159 | 149.42031 | 4645 ft | 225 kts | 169° |
| 2026-04-25 07:51 | -35.31789 | 149.42507 | 4366 ft | 299 kts | 163° |
| 2026-04-25 07:51 | -35.33911 | 149.43463 | 4273 ft | 314 kts | 161° |
| 2026-04-25 07:51 | -35.35892 | 149.44070 | 4385 ft | 277 kts | 170° |
| 2026-04-25 07:52 | -35.37721 | 149.44462 | 4410 ft | 279 kts | 171° |
| 2026-04-25 07:52 | -35.39631 | 149.44343 | 4409 ft | 297 kts | 206° |
| 2026-04-25 07:52 | -35.41107 | 149.42924 | 4385 ft | 248 kts | 231° |
| 2026-04-25 07:52 | -35.41958 | 149.40996 | 4480 ft | 271 kts | 261° |
| 2026-04-25 07:53 | -35.42066 | 149.38609 | 4499 ft | 278 kts | 265° |
| 2026-04-25 07:53 | -35.42195 | 149.36356 | 4516 ft | 281 kts | 268° |
| 2026-04-25 07:53 | -35.42260 | 149.34017 | 4555 ft | 259 kts | 272° |
| 2026-04-25 07:53 | -35.42213 | 149.31881 | 4517 ft | 285 kts | 270° |
| 2026-04-25 07:54 | -35.42199 | 149.29460 | 4519 ft | 261 kts | 272° |
| 2026-04-25 07:54 | -35.42170 | 149.27299 | 4499 ft | 276 kts | 271° |
| 2026-04-25 07:54 | -35.42154 | 149.24986 | 4461 ft | 270 kts | 271° |
| 2026-04-25 07:54 | -35.42175 | 149.22718 | 4457 ft | 268 kts | 270° |
| 2026-04-25 07:55 | -35.41606 | 149.20624 | 4035 ft | 267 kts | 311° |
| 2026-04-25 07:55 | -35.40069 | 149.19567 | 3610 ft | 281 kts | 346° |
| 2026-04-25 07:55 | -35.38216 | 149.19507 | 3147 ft | 262 kts | 0° |
| 2026-04-25 07:55 | -35.36393 | 149.19535 | 2793 ft | 257 kts | 356° |
| 2026-04-25 07:56 | -35.34648 | 149.19488 | 2423 ft | 254 kts | 358° |
| 2026-04-25 07:56 | -35.32873 | 149.19496 | 2374 ft | 254 kts | 0° |
| 2026-04-25 07:56 | -35.31116 | 149.19476 | 2206 ft | 253 kts | 358° |
| 2026-04-25 07:56 | -35.29344 | 149.19464 | 2174 ft | 249 kts | 358° |
| 2026-04-25 07:57 | -35.27747 | 149.18914 | 2702 ft | 261 kts | 336° |
| 2026-04-25 07:57 | -35.26758 | 149.18113 | 2925 ft | 254 kts | 310° |
| 2026-04-25 07:57 | -35.25072 | 149.16035 | 3650 ft | 252 kts | 308° |
| 2026-04-25 07:57 | -35.24344 | 149.14872 | 4529 ft | 259 kts | 311° |
| 2026-04-25 07:58 | -35.22955 | 149.13384 | 5196 ft | 282 kts | 319° |
| 2026-04-25 07:58 | -35.21763 | 149.11563 | 4579 ft | 257 kts | 294° |
| 2026-04-25 07:58 | -35.21890 | 149.09396 | 4689 ft | 275 kts | 231° |
| 2026-04-25 07:58 | -35.23265 | 149.07735 | 3561 ft | 275 kts | 218° |
| 2026-04-25 07:59 | -35.24838 | 149.06892 | 3462 ft | 229 kts | 185° |
| 2026-04-25 07:59 | -35.26358 | 149.07212 | 3088 ft | 242 kts | 159° |
| 2026-04-25 07:59 | -35.28353 | 149.08313 | 3049 ft | 344 kts | 154° |
| 2026-04-25 07:59 | -35.30417 | 149.09806 | 2745 ft | 332 kts | 135° |
| 2026-04-25 08:00 | -35.30678 | 149.12112 | 2345 ft | 269 kts | 58° |
| 2026-04-25 08:00 | -35.29431 | 149.13553 | 2211 ft | 296 kts | 37° |
| 2026-04-25 08:00 | -35.27396 | 149.15398 | 3071 ft | 425 kts | 35° |
| 2026-04-25 08:00 | -35.25246 | 149.17525 | 5019 ft | 373 kts | 29° |
| 2026-04-25 08:01 | -35.23048 | 149.19210 | 6518 ft | 368 kts | 26° |
| 2026-04-25 08:01 | -35.20792 | 149.20894 | 8721 ft | 384 kts | 32° |
| 2026-04-25 08:01 | -35.18525 | 149.22752 | 10832 ft | 400 kts | 32° |
| 2026-04-25 08:01 | -35.16207 | 149.24675 | 13183 ft | 408 kts | 32° |
| 2026-04-25 08:02 | -35.13757 | 149.26713 | 15621 ft | 430 kts | 32° |
| 2026-04-25 08:02 | -35.11232 | 149.28703 | 17769 ft | 436 kts | 32° |
| 2026-04-25 08:02 | -35.08666 | 149.30754 | 20042 ft | 449 kts | 32° |
| 2026-04-25 08:02 | -35.05984 | 149.32969 | 22542 ft | 471 kts | 33° |
| 2026-04-25 08:03 | -35.03242 | 149.35187 | 25017 ft | 483 kts | 33° |
| 2026-04-25 08:03 | -35.00353 | 149.37536 | 27477 ft | 514 kts | 26° |
| 2026-04-25 08:03 | -34.96897 | 149.38811 | 30199 ft | 534 kts | 5° |
| 2026-04-25 08:03 | -34.93119 | 149.39006 | 32750 ft | 555 kts | 1° |
| 2026-04-25 08:04 | -34.89530 | 149.39095 | 35123 ft | 535 kts | 358° |
| 2026-04-25 08:04 | -34.85755 | 149.39153 | 37384 ft | 536 kts | 2° |
| 2026-04-25 08:04 | -34.82065 | 149.39350 | 39091 ft | 409 kts | 328° |
| 2026-04-25 08:04 | -34.80777 | 149.37162 | 39530 ft | 298 kts | 234° |
| 2026-04-25 08:05 | -34.82467 | 149.36810 | 34874 ft | 326 kts | 113° |
| 2026-04-25 08:05 | -34.81569 | 149.39006 | 32570 ft | 337 kts | 8° |
| 2026-04-25 08:05 | -34.79052 | 149.39301 | 33346 ft | 400 kts | 7° |
| 2026-04-25 08:05 | -34.76085 | 149.40175 | 34509 ft | 485 kts | 22° |
| 2026-04-25 08:06 | -34.73011 | 149.42584 | 35580 ft | 551 kts | 46° |
| 2026-04-25 08:06 | -34.70673 | 149.46181 | 36294 ft | 536 kts | 55° |
| 2026-04-25 08:06 | -34.68439 | 149.50000 | 36970 ft | 553 kts | 54° |
| 2026-04-25 08:06 | -34.66054 | 149.53701 | 36978 ft | 558 kts | 59° |
| 2026-04-25 08:07 | -34.64144 | 149.57809 | 37095 ft | 558 kts | 63° |
| 2026-04-25 08:07 | -34.62384 | 149.62029 | 36992 ft | 559 kts | 64° |
| 2026-04-25 08:07 | -34.59001 | 149.70461 | 36693 ft | 587 kts | 66° |
| 2026-04-25 08:08 | -34.57329 | 149.74967 | 36001 ft | 574 kts | 68° |
| 2026-04-25 08:08 | -34.55725 | 149.79373 | 36032 ft | 570 kts | 67° |
| 2026-04-25 08:08 | -34.52409 | 149.88095 | 36202 ft | 570 kts | 65° |
| 2026-04-25 08:09 | -34.50668 | 149.92364 | 36362 ft | 575 kts | 64° |
| 2026-04-25 08:09 | -34.48792 | 149.96800 | 36477 ft | 593 kts | 64° |
| 2026-04-25 08:09 | -34.46892 | 150.01333 | 36527 ft | 636 kts | 64° |
| 2026-04-25 08:09 | -34.44783 | 150.06275 | 36777 ft | 686 kts | 63° |
| 2026-04-25 08:10 | -34.42455 | 150.11597 | 36865 ft | 742 kts | 63° |
| 2026-04-25 08:10 | -34.39936 | 150.17309 | 36986 ft | 736 kts | 48° |
| 2026-04-25 08:10 | -34.37547 | 150.22410 | 36658 ft | 673 kts | 60° |
| 2026-04-25 08:10 | -34.35267 | 150.27050 | 36662 ft | 602 kts | 57° |
| 2026-04-25 08:11 | -34.33314 | 150.31220 | 37175 ft | 555 kts | 63° |
| 2026-04-25 08:11 | -34.31494 | 150.35371 | 37325 ft | 564 kts | 64° |
| 2026-04-25 08:11 | -34.29706 | 150.39610 | 37200 ft | 563 kts | 64° |
| 2026-04-25 08:11 | -34.27669 | 150.43433 | 37407 ft | 512 kts | 57° |
| 2026-04-25 08:12 | -34.26039 | 150.47013 | 37379 ft | 482 kts | 65° |
| 2026-04-25 08:12 | -34.24481 | 150.50832 | 37288 ft | 533 kts | 66° |
| 2026-04-25 08:12 | -34.22810 | 150.54994 | 37155 ft | 561 kts | 66° |
| 2026-04-25 08:12 | -34.21101 | 150.59257 | 36950 ft | 567 kts | 66° |
| 2026-04-25 08:13 | -34.19222 | 150.63373 | 36855 ft | 553 kts | 60° |
| 2026-04-25 08:13 | -34.17229 | 150.67404 | 36770 ft | 565 kts | 62° |
| 2026-04-25 08:13 | -34.15201 | 150.71331 | 36917 ft | 530 kts | 75° |
| 2026-04-25 08:14 | -34.11741 | 150.79138 | 36539 ft | 551 kts | 61° |
| 2026-04-25 08:14 | -34.09607 | 150.83103 | 35331 ft | 573 kts | 57° |
| 2026-04-25 08:14 | -34.07625 | 150.87231 | 34239 ft | 562 kts | 64° |
| 2026-04-25 08:14 | -34.05752 | 150.91372 | 32935 ft | 576 kts | 60° |
| 2026-04-25 08:15 | -34.03487 | 150.95334 | 31714 ft | 572 kts | 56° |
| 2026-04-25 08:15 | -34.01493 | 150.99251 | 31055 ft | 548 kts | 64° |
| 2026-04-25 08:15 | -33.99726 | 151.03329 | 29471 ft | 555 kts | 65° |
| 2026-04-25 08:15 | -33.97899 | 151.07444 | 29352 ft | 526 kts | 62° |
| 2026-04-25 08:16 | -33.96127 | 151.11338 | 29526 ft | 548 kts | 63° |
| 2026-04-25 08:16 | -33.92623 | 151.19378 | 29806 ft | 524 kts | 60° |
| 2026-04-25 08:16 | -33.90620 | 151.23088 | 30052 ft | 531 kts | 59° |
| 2026-04-25 08:17 | -33.88346 | 151.26732 | 30232 ft | 559 kts | 51° |
| 2026-04-25 08:17 | -33.85766 | 151.30233 | 30118 ft | 568 kts | 49° |
| 2026-04-25 08:17 | -33.83147 | 151.33612 | 30166 ft | 528 kts | 49° |
| 2026-04-25 08:17 | -33.80545 | 151.36907 | 30127 ft | 561 kts | 49° |
| 2026-04-25 08:18 | -33.78103 | 151.40534 | 30148 ft | 539 kts | 61° |
| 2026-04-25 08:18 | -33.75977 | 151.43927 | 30043 ft | 488 kts | 43° |
| 2026-04-25 08:18 | -33.73170 | 151.46658 | 30026 ft | 547 kts | 46° |
| 2026-04-25 08:18 | -33.70816 | 151.50130 | 30435 ft | 531 kts | 56° |
| 2026-04-25 08:19 | -33.68584 | 151.53886 | 30255 ft | 569 kts | 58° |
| 2026-04-25 08:19 | -33.66243 | 151.57729 | 29783 ft | 576 kts | 52° |
| 2026-04-25 08:19 | -33.63429 | 151.61106 | 29552 ft | 566 kts | 36° |
| 2026-04-25 08:19 | -33.59661 | 151.62707 | 27904 ft | 591 kts | 7° |
| 2026-04-25 08:20 | -33.55865 | 151.63731 | 25766 ft | 530 kts | 22° |
| 2026-04-25 08:20 | -33.53026 | 151.63959 | 25134 ft | 388 kts | 12° |
| 2026-04-25 08:20 | -33.50045 | 151.64533 | 22728 ft | 503 kts | 16° |
| 2026-04-25 08:20 | -33.46229 | 151.65754 | 20871 ft | 601 kts | 8° |
| 2026-04-25 08:21 | -33.42476 | 151.66785 | 19968 ft | 500 kts | 351° |
| 2026-04-25 08:21 | -33.40497 | 151.64992 | 19916 ft | 300 kts | 258° |
| 2026-04-25 08:21 | -33.39405 | 151.63822 | 18993 ft | 251 kts | 34° |
| 2026-04-25 08:21 | -33.37544 | 151.65232 | 17082 ft | 412 kts | 31° |
| 2026-04-25 08:22 | -33.34227 | 151.66958 | 14946 ft | 622 kts | 20° |
| 2026-04-25 08:22 | -33.30260 | 151.68734 | 12738 ft | 609 kts | 19° |
| 2026-04-25 08:22 | -33.27445 | 151.69963 | 11450 ft | 594 kts | 25° |
| 2026-04-25 08:22 | -33.23733 | 151.72082 | 10166 ft | 592 kts | 29° |
| 2026-04-25 08:23 | -33.20159 | 151.73904 | 9088 ft | 492 kts | 13° |
| 2026-04-25 08:23 | -33.17182 | 151.74500 | 9214 ft | 401 kts | 3° |
| 2026-04-25 08:23 | -33.14498 | 151.74657 | 8569 ft | 364 kts | 11° |
| 2026-04-25 08:23 | -33.12329 | 151.75807 | 7433 ft | 326 kts | 19° |
| 2026-04-25 08:24 | -33.10228 | 151.76352 | 6939 ft | 314 kts | 13° |
| 2026-04-25 08:24 | -33.07558 | 151.76941 | 5744 ft | 429 kts | 24° |
| 2026-04-25 08:24 | -33.05633 | 151.77462 | 5244 ft | 423 kts | 12° |
| 2026-04-25 08:24 | -33.02043 | 151.78257 | 4507 ft | 362 kts | 13° |
| 2026-04-25 08:25 | -32.99671 | 151.78793 | 3920 ft | 381 kts | 9° |
| 2026-04-25 08:25 | -32.97074 | 151.79276 | 3212 ft | 363 kts | 12° |
| 2026-04-25 08:25 | -32.94599 | 151.79781 | 2559 ft | 356 kts | 10° |
| 2026-04-25 08:25 | -32.92947 | 151.79906 | 2118 ft | 352 kts | 354° |
| 2026-04-25 08:26 | -32.90817 | 151.78549 | 1830 ft | 359 kts | 314° |
| 2026-04-25 08:26 | -32.89150 | 151.76389 | 1854 ft | 343 kts | 313° |
| 2026-04-25 08:26 | -32.87509 | 151.74131 | 1799 ft | 375 kts | 313° |
| 2026-04-25 08:26 | -32.86087 | 151.71849 | 2028 ft | 318 kts | 315° |
| 2026-04-25 08:27 | -32.85084 | 151.70566 | 1922 ft | 375 kts | 320° |
| 2026-04-25 08:27 | -32.83086 | 151.68526 | 1993 ft | 361 kts | 330° |
| 2026-04-25 08:27 | -32.80533 | 151.67596 | 2362 ft | 465 kts | 3° |
| 2026-04-25 08:27 | -32.77982 | 151.69633 | 2537 ft | 435 kts | 67° |
| 2026-04-25 08:28 | -32.77074 | 151.72764 | 2269 ft | 366 kts | 73° |
| 2026-04-25 08:28 | -32.76112 | 151.75454 | 2429 ft | 348 kts | 71° |
| 2026-04-25 08:28 | -32.75941 | 151.78298 | 2061 ft | 351 kts | 106° |
| 2026-04-25 08:28 | -32.77273 | 151.80716 | 826 ft | 353 kts | 131° |
| 2026-04-25 08:29 | -32.78900 | 151.82896 | 416 ft | 348 kts | 129° |
| 2026-04-25 08:29 | -32.80480 | 151.85119 | 480 ft | 357 kts | 129° |
| 2026-04-25 08:29 | -32.82426 | 151.85852 | 1303 ft | 287 kts | 238° |
| 2026-04-25 08:29 | -32.81963 | 151.84026 | 1480 ft | 246 kts | 308° |
| 2026-04-25 08:30 | -32.81010 | 151.82337 | 1483 ft | 235 kts | 307° |
| 2026-04-25 08:30 | -32.80166 | 151.80873 | 1487 ft | 225 kts | 309° |
| 2026-04-25 08:30 | -32.79098 | 151.79135 | 1760 ft | 289 kts | 309° |
| 2026-04-25 08:30 | -32.77651 | 151.78095 | 1836 ft | 212 kts | 15° |
| 2026-04-25 08:31 | -32.76931 | 151.79426 | 1683 ft | 201 kts | 105° |
| 2026-04-25 08:31 | -32.77614 | 151.80770 | 809 ft | 212 kts | 134° |
| 2026-04-25 08:31 | -32.78558 | 151.82037 | 227 ft | 185 kts | 129° |
| 2026-04-25 08:31 | -32.79278 | 151.83033 | 30 ft | 147 kts | 131° |
| 2026-04-25 08:32 | -32.79745 | 151.83691 | 30 ft | 44 kts | 134° |
| 2026-04-25 08:32 | -32.79838 | 151.83860 | 31 ft | 21 kts | 89° |
| 2026-04-25 08:32 | -32.79769 | 151.83981 | 32 ft | 13 kts | 20° |
| 2026-04-25 08:32 | -32.79709 | 151.83935 | 31 ft | 18 kts | 310° |
| 2026-04-25 08:33 | -32.79593 | 151.83776 | 30 ft | 30 kts | 309° |
| 2026-04-25 08:33 | -32.79457 | 151.83583 | 28 ft | 27 kts | 310° |
| 2026-04-25 08:33 | -32.79384 | 151.83483 | 28 ft | 6 kts | 315° |
| 2026-04-25 08:33 | -32.79333 | 151.83492 | 29 ft | 11 kts | 38° |
| 2026-04-25 08:34 | -32.79252 | 151.83573 | 31 ft | 17 kts | 39° |
| 2026-04-25 08:34 | -32.79151 | 151.83673 | 31 ft | 15 kts | 39° |
| 2026-04-25 08:34 | -32.79119 | 151.83706 | 32 ft | 13 kts | 39° |
| 2026-04-25 08:34 | -32.79063 | 151.83721 | 31 ft | 9 kts | 326° |
| 2026-04-25 08:35 | -32.78992 | 151.83722 | 31 ft | 4 kts | 53° |
| 2026-04-25 08:35 | -32.79015 | 151.83767 | 31 ft | 6 kts | 153° |
| 2026-04-25 08:35 | -32.79037 | 151.83784 | 31 ft | 4 kts | 142° |
| 2026-04-25 08:35 | -32.79042 | 151.83803 | 31 ft | 2 kts | 70° |
| 2026-04-25 08:36 | -32.79031 | 151.83821 | 31 ft | 5 kts | 54° |
| 2026-04-25 08:36 | -32.79026 | 151.83829 | 31 ft | 0 kts | 55° |